createdAt,value
2018-08-20T00:02:10.768Z,79.40
2018-08-20T00:04:44.496Z,79.50
2018-08-20T00:07:12.749Z,79.20
2018-08-20T00:09:46.633Z,79.30
2018-08-20T00:12:16.488Z,79.50
2018-08-20T00:14:44.753Z,79.60
2018-08-20T00:17:13.563Z,79.70
2018-08-20T00:19:42.079Z,79.90
2018-08-20T00:22:10.503Z,80.10
2018-08-20T00:24:38.900Z,81.10
2018-08-20T00:27:07.172Z,80.60
2018-08-20T00:29:37.483Z,80.50
2018-08-20T00:32:05.764Z,80.60
2018-08-20T00:34:33.999Z,80.70
2018-08-20T00:37:02.232Z,81.10
2018-08-20T00:39:30.790Z,81.10
2018-08-20T00:41:59.412Z,81.20
2018-08-20T00:44:27.695Z,81.30
2018-08-20T00:46:56.160Z,81.40
2018-08-20T00:49:24.432Z,81.90
2018-08-20T00:51:52.659Z,81.90
2018-08-20T00:54:20.988Z,82.30
2018-08-20T00:56:49.258Z,82.10
2018-08-20T00:59:17.547Z,82.60
2018-08-20T01:01:45.897Z,82.80
2018-08-20T01:04:14.145Z,83.40
2018-08-20T01:06:42.371Z,83.50
2018-08-20T01:09:10.603Z,83.60
2018-08-20T01:11:38.887Z,83.80
2018-08-20T01:14:07.085Z,83.90
2018-08-20T01:16:35.341Z,84.00
2018-08-20T01:19:03.601Z,84.30
2018-08-20T01:21:31.825Z,84.10
2018-08-20T01:24:00.350Z,84.30
2018-08-20T01:26:28.580Z,84.30
2018-08-20T01:28:56.796Z,84.50
2018-08-20T01:31:25.028Z,84.50
2018-08-20T01:33:53.776Z,84.60
2018-08-20T01:36:21.989Z,84.20
2018-08-20T01:38:50.343Z,84.30
2018-08-20T01:41:18.607Z,84.30
2018-08-20T01:43:46.819Z,84.60
2018-08-20T01:46:15.077Z,84.50
2018-08-20T01:48:43.279Z,84.30
2018-08-20T01:51:11.547Z,84.50
2018-08-20T01:53:39.744Z,84.20
2018-08-20T01:56:08.220Z,84.40
2018-08-20T01:58:36.440Z,84.20
2018-08-20T02:01:04.715Z,84.30
2018-08-20T02:03:32.935Z,84.30
2018-08-20T02:06:01.131Z,84.30
2018-08-20T02:08:29.363Z,84.20
2018-08-20T02:10:57.580Z,84.10
2018-08-20T02:13:25.883Z,84.40
2018-08-20T02:15:54.214Z,84.40
2018-08-20T02:18:22.395Z,84.30
2018-08-20T02:20:50.603Z,84.50
2018-08-20T02:23:18.819Z,84.80
2018-08-20T02:25:47.015Z,84.80
2018-08-20T02:28:15.246Z,85.00
2018-08-20T02:30:43.467Z,85.20
2018-08-20T02:33:11.675Z,85.30
2018-08-20T02:35:39.959Z,85.00
2018-08-20T02:38:08.192Z,85.30
2018-08-20T02:40:36.395Z,85.60
2018-08-20T02:43:04.648Z,85.70
2018-08-20T02:45:32.855Z,86.00
2018-08-20T02:48:01.101Z,86.00
2018-08-20T02:50:29.287Z,86.30
2018-08-20T02:52:57.475Z,86.40
2018-08-20T02:55:25.724Z,86.50
2018-08-20T02:57:53.928Z,86.70
2018-08-20T03:00:22.200Z,86.70
2018-08-20T03:02:50.431Z,87.10
2018-08-20T03:05:19.869Z,87.00
2018-08-20T03:07:48.081Z,87.20
2018-08-20T03:10:16.309Z,87.00
2018-08-20T03:12:44.488Z,87.00
2018-08-20T03:15:12.718Z,87.00
2018-08-20T03:17:40.943Z,87.00
2018-08-20T03:20:09.151Z,87.30
2018-08-20T03:22:37.372Z,87.30
2018-08-20T03:25:06.187Z,87.50
2018-08-20T03:27:34.367Z,87.50
2018-08-20T03:30:02.740Z,87.70
2018-08-20T03:32:31.784Z,87.90
2018-08-20T03:34:59.982Z,87.80
2018-08-20T03:37:28.384Z,87.80
2018-08-20T03:39:56.594Z,88.00
2018-08-20T03:42:24.859Z,88.30
2018-08-20T03:44:53.128Z,88.50
2018-08-20T03:47:21.551Z,88.70
2018-08-20T03:49:50.116Z,88.80
2018-08-20T03:52:18.349Z,88.70
2018-08-20T03:54:46.531Z,88.90
2018-08-20T03:57:14.856Z,88.90
2018-08-20T03:59:43.081Z,89.10
2018-08-20T04:02:12.097Z,89.10
2018-08-20T04:04:40.373Z,89.00
2018-08-20T04:07:08.659Z,89.10
2018-08-20T04:09:36.900Z,89.10
2018-08-20T04:12:05.435Z,89.30
2018-08-20T04:14:33.662Z,89.30
2018-08-20T04:17:01.870Z,89.30
2018-08-20T04:19:30.539Z,89.30
2018-08-20T04:21:58.850Z,89.20
2018-08-20T04:24:27.082Z,89.50
2018-08-20T04:26:55.276Z,89.60
2018-08-20T04:29:23.547Z,89.70
2018-08-20T04:31:51.731Z,89.60
2018-08-20T04:34:19.959Z,89.50
2018-08-20T04:36:48.218Z,89.30
2018-08-20T04:39:16.840Z,89.30
2018-08-20T04:41:45.059Z,89.30
2018-08-20T04:44:13.304Z,89.40
2018-08-20T04:46:41.491Z,89.10
2018-08-20T04:49:09.691Z,88.80
2018-08-20T04:51:37.909Z,89.30
2018-08-20T04:54:06.820Z,89.20
2018-08-20T04:56:35.029Z,89.40
2018-08-20T04:59:03.260Z,89.40
2018-08-20T05:01:31.589Z,89.30
2018-08-20T05:03:59.793Z,89.30
2018-08-20T05:06:28.000Z,89.10
2018-08-20T05:08:56.217Z,89.40
2018-08-20T05:11:24.423Z,89.30
2018-08-20T05:13:52.619Z,89.50
2018-08-20T05:16:20.930Z,89.30
2018-08-20T05:18:49.194Z,89.30
2018-08-20T05:21:18.125Z,89.50
2018-08-20T05:23:46.387Z,89.40
2018-08-20T05:26:14.633Z,89.70
2018-08-20T05:28:42.831Z,89.60
2018-08-20T05:31:11.113Z,90.00
2018-08-20T05:33:39.381Z,89.70
2018-08-20T05:36:07.559Z,89.80
2018-08-20T05:38:35.747Z,89.80
2018-08-20T05:41:04.011Z,89.80
2018-08-20T05:43:32.254Z,90.50
2018-08-20T05:46:00.517Z,90.10
2018-08-20T05:48:28.725Z,90.20
2018-08-20T05:50:56.920Z,90.20
2018-08-20T05:53:25.131Z,90.40
2018-08-20T05:55:53.351Z,90.20
2018-08-20T05:58:21.565Z,90.40
2018-08-20T06:00:49.809Z,91.10
2018-08-20T06:03:18.016Z,91.20
2018-08-20T06:05:46.284Z,91.80
2018-08-20T06:08:14.436Z,92.00
2018-08-20T06:10:42.646Z,92.30
2018-08-20T06:13:11.603Z,92.90
2018-08-20T06:15:39.800Z,93.20
2018-08-20T06:18:08.180Z,93.60
2018-08-20T06:20:36.408Z,93.30
2018-08-20T06:23:04.742Z,93.40
2018-08-20T06:25:32.982Z,93.50
2018-08-20T06:28:01.202Z,93.50
2018-08-20T06:30:29.429Z,93.40
2018-08-20T06:32:57.706Z,93.70
2018-08-20T06:35:25.912Z,93.80
2018-08-20T06:37:54.232Z,93.70
2018-08-20T06:40:22.440Z,94.30
2018-08-20T06:42:50.660Z,93.80
2018-08-20T06:45:19.112Z,94.00
2018-08-20T06:47:47.641Z,94.30
2018-08-20T06:50:16.387Z,94.00
2018-08-20T06:52:45.347Z,93.70
2018-08-20T06:55:14.775Z,93.60
2018-08-20T06:57:43.973Z,93.50
2018-08-20T07:00:12.360Z,93.60
2018-08-20T07:02:40.592Z,93.30
2018-08-20T07:05:09.156Z,93.30
2018-08-20T07:07:38.720Z,93.40
2018-08-20T07:10:11.540Z,93.10
2018-08-20T07:12:39.813Z,93.10
2018-08-20T07:15:09.279Z,93.00
2018-08-20T07:17:37.537Z,92.80
2018-08-20T07:20:07.663Z,92.90
2018-08-20T07:22:35.860Z,92.80
2018-08-20T07:25:04.732Z,92.80
2018-08-20T07:27:33.154Z,92.90
2018-08-20T07:30:01.403Z,92.80
2018-08-20T07:32:29.590Z,92.70
2018-08-20T07:34:57.868Z,92.70
2018-08-20T07:37:26.131Z,92.50
2018-08-20T07:39:54.402Z,92.30
2018-08-20T07:42:22.686Z,92.40
2018-08-20T07:44:50.868Z,92.30
2018-08-20T07:47:19.219Z,92.40
2018-08-20T07:49:47.660Z,92.00
2018-08-20T07:52:15.937Z,92.10
2018-08-20T07:54:44.150Z,92.00
2018-08-20T07:57:12.464Z,91.90
2018-08-20T07:59:40.825Z,91.70
2018-08-20T08:02:09.108Z,91.90
2018-08-20T08:04:37.355Z,92.00
2018-08-20T08:07:05.694Z,92.10
2018-08-20T08:09:34.217Z,92.10
2018-08-20T08:12:02.440Z,92.30
2018-08-20T08:14:30.731Z,92.20
2018-08-20T08:16:58.988Z,92.40
2018-08-20T08:19:27.309Z,92.50
2018-08-20T08:21:55.523Z,92.50
2018-08-20T08:24:23.800Z,92.50
2018-08-20T08:26:52.061Z,92.60
2018-08-20T08:29:20.271Z,92.70
2018-08-20T08:31:48.514Z,92.50
2018-08-20T08:34:16.826Z,92.40
2018-08-20T08:36:45.080Z,92.50
2018-08-20T08:39:13.299Z,92.40
2018-08-20T08:41:41.639Z,92.40
2018-08-20T08:44:10.344Z,92.50
2018-08-20T08:46:38.588Z,92.40
2018-08-20T08:49:06.790Z,92.60
2018-08-20T08:51:34.989Z,92.50
2018-08-20T08:54:03.215Z,92.50
2018-08-20T08:56:31.419Z,92.50
2018-08-20T08:58:59.666Z,92.40
2018-08-20T09:01:27.914Z,92.30
2018-08-20T09:03:56.160Z,92.50
2018-08-20T09:06:24.381Z,92.30
2018-08-20T09:08:52.579Z,92.20
2018-08-20T09:11:21.280Z,92.10
2018-08-20T09:13:49.558Z,92.30
2018-08-20T09:16:17.779Z,92.10
2018-08-20T09:18:45.983Z,91.90
2018-08-20T09:21:14.356Z,91.90
2018-08-20T09:23:42.571Z,91.60
2018-08-20T09:26:10.788Z,91.70
2018-08-20T09:28:39.080Z,91.60
2018-08-20T09:31:07.363Z,91.50
2018-08-20T09:33:35.576Z,91.70
2018-08-20T09:36:03.920Z,91.50
2018-08-20T09:38:32.124Z,91.70
2018-08-20T09:41:00.387Z,91.30
2018-08-20T09:43:28.677Z,91.30
2018-08-20T09:45:56.916Z,90.90
2018-08-20T09:48:25.140Z,90.90
2018-08-20T09:50:53.373Z,90.70
2018-08-20T09:53:21.706Z,91.10
2018-08-20T09:55:49.835Z,91.00
2018-08-20T09:58:18.072Z,90.80
2018-08-20T10:00:46.397Z,90.60
2018-08-20T10:03:14.652Z,90.40
2018-08-20T10:05:42.855Z,90.20
2018-08-20T10:08:11.097Z,90.00
2018-08-20T10:10:39.355Z,89.60
2018-08-20T10:13:07.581Z,88.70
2018-08-20T10:15:35.835Z,88.50
2018-08-20T10:18:04.055Z,88.20
2018-08-20T10:20:32.316Z,86.70
2018-08-20T10:23:00.544Z,87.50
2018-08-20T10:25:28.962Z,87.40
2018-08-20T10:27:57.219Z,85.90
2018-08-20T10:30:25.447Z,86.20
2018-08-20T10:32:53.668Z,86.40
2018-08-20T10:35:21.895Z,86.30
2018-08-20T10:37:50.164Z,85.60
2018-08-20T10:40:18.382Z,86.00
2018-08-20T10:42:46.587Z,84.90
2018-08-20T10:45:16.763Z,84.30
2018-08-20T10:47:46.347Z,84.40
2018-08-20T10:50:15.540Z,84.80
2018-08-20T10:52:45.132Z,84.10
2018-08-20T10:55:13.383Z,83.10
2018-08-20T10:57:42.056Z,82.60
2018-08-20T11:00:11.027Z,82.10
2018-08-20T11:02:39.364Z,81.80
2018-08-20T11:05:10.136Z,81.60
2018-08-20T11:07:38.436Z,81.30
2018-08-20T11:10:06.763Z,80.50
2018-08-20T11:12:34.952Z,80.90
2018-08-20T11:15:03.202Z,80.70
2018-08-20T11:17:31.449Z,80.40
2018-08-20T11:19:59.656Z,79.50
2018-08-20T11:22:27.855Z,78.50
2018-08-20T11:24:56.108Z,78.30
2018-08-20T11:27:24.399Z,78.50
2018-08-20T11:29:52.614Z,77.70
2018-08-20T11:32:20.877Z,77.20
2018-08-20T11:34:49.119Z,76.30
2018-08-20T11:37:17.330Z,76.70
2018-08-20T11:39:45.528Z,75.30
2018-08-20T11:42:13.875Z,73.90
2018-08-20T11:44:42.126Z,73.10
2018-08-20T11:47:10.408Z,75.50
2018-08-20T11:49:38.651Z,76.40
2018-08-20T11:52:06.929Z,77.60
2018-08-20T11:54:35.128Z,78.10
2018-08-20T11:57:03.539Z,77.80
2018-08-20T11:59:31.766Z,78.70
2018-08-20T12:02:00.477Z,79.60
2018-08-20T12:04:28.584Z,80.70
2018-08-20T12:06:56.841Z,81.20
2018-08-20T12:09:24.995Z,81.20
2018-08-20T12:11:53.291Z,80.60
2018-08-20T12:14:21.526Z,79.70
2018-08-20T12:16:49.767Z,81.00
2018-08-20T12:19:18.020Z,81.20
2018-08-20T12:21:46.256Z,81.90
2018-08-20T12:24:14.449Z,81.20
2018-08-20T12:26:42.756Z,84.10
2018-08-20T12:29:11.089Z,83.70
2018-08-20T12:31:39.279Z,83.90
2018-08-20T12:34:07.583Z,84.30
2018-08-20T12:36:36.139Z,88.40
2018-08-20T12:39:05.677Z,90.30
2018-08-20T12:41:33.951Z,91.40
2018-08-20T12:44:02.305Z,92.50
2018-08-20T12:46:30.512Z,92.40
2018-08-20T12:48:58.733Z,93.00
2018-08-20T12:51:26.999Z,93.40
2018-08-20T12:53:55.209Z,93.20
2018-08-20T12:56:23.421Z,93.40
2018-08-20T12:58:52.861Z,92.50
2018-08-20T13:01:21.091Z,91.90
2018-08-20T13:03:49.989Z,91.50
2018-08-20T13:06:18.230Z,91.00
2018-08-20T13:08:47.484Z,91.20
2018-08-20T13:11:16.017Z,89.40
2018-08-20T13:13:44.576Z,90.00
2018-08-20T13:16:12.909Z,90.00
2018-08-20T13:18:40.979Z,88.10
2018-08-20T13:21:09.237Z,86.20
2018-08-20T13:23:37.535Z,84.60
2018-08-20T13:26:05.964Z,83.70
2018-08-20T13:28:34.212Z,83.30
2018-08-20T13:31:02.865Z,82.80
2018-08-20T13:33:31.172Z,81.40
2018-08-20T13:35:59.420Z,77.60
2018-08-20T13:38:27.790Z,77.10
2018-08-20T13:40:55.975Z,75.90
2018-08-20T13:43:24.354Z,76.10
2018-08-20T13:45:52.559Z,77.40
2018-08-20T13:48:20.853Z,77.00
2018-08-20T13:50:49.084Z,76.90
2018-08-20T13:53:17.316Z,76.90
2018-08-20T13:55:45.735Z,76.30
2018-08-20T13:58:14.077Z,75.50
2018-08-20T14:00:42.381Z,75.40
2018-08-20T14:03:10.596Z,75.80
2018-08-20T14:05:38.799Z,74.80
2018-08-20T14:08:07.242Z,76.40
2018-08-20T14:10:35.712Z,76.40
2018-08-20T14:13:04.318Z,76.20
2018-08-20T14:15:32.687Z,74.40
2018-08-20T14:18:00.986Z,75.20
2018-08-20T14:20:29.260Z,76.10
2018-08-20T14:22:57.488Z,76.60
2018-08-20T14:25:25.736Z,76.20
2018-08-20T14:27:53.984Z,75.70
2018-08-20T14:30:22.355Z,75.70
2018-08-20T14:32:50.694Z,77.30
2018-08-20T14:35:19.302Z,77.10
2018-08-20T14:37:47.581Z,77.20
2018-08-20T14:40:18.411Z,76.80
2018-08-20T14:42:46.680Z,77.10
2018-08-20T14:45:16.019Z,77.40
2018-08-20T14:47:44.944Z,76.10
2018-08-20T14:50:15.183Z,75.90
2018-08-20T14:52:43.493Z,74.80
2018-08-20T14:55:12.185Z,74.20
2018-08-20T14:57:40.410Z,73.40
2018-08-20T15:00:11.189Z,72.80
2018-08-20T15:02:39.463Z,73.00
2018-08-20T15:05:07.863Z,72.40
2018-08-20T15:07:36.400Z,71.20
2018-08-20T15:10:05.727Z,71.00
2018-08-20T15:12:33.983Z,70.10
2018-08-20T15:15:02.270Z,70.00
2018-08-20T15:17:30.464Z,70.10
2018-08-20T15:19:58.721Z,70.20
2018-08-20T15:22:26.948Z,70.20
2018-08-20T15:24:55.295Z,69.90
2018-08-20T15:27:23.566Z,70.70
2018-08-20T15:29:51.972Z,70.40
2018-08-20T15:32:20.286Z,70.00
2018-08-20T15:34:48.489Z,70.40
2018-08-20T15:37:16.750Z,70.90
2018-08-20T15:39:44.961Z,71.10
2018-08-20T15:42:13.204Z,70.30
2018-08-20T15:44:41.474Z,68.60
2018-08-20T15:47:09.696Z,68.90
2018-08-20T15:49:37.935Z,68.70
2018-08-20T15:52:06.141Z,69.30
2018-08-20T15:54:34.677Z,70.00
2018-08-20T15:57:03.023Z,69.30
2018-08-20T15:59:31.268Z,69.70
2018-08-20T16:01:59.508Z,70.20
2018-08-20T16:04:27.755Z,69.90
2018-08-20T16:06:56.006Z,69.70
2018-08-20T16:09:24.239Z,69.50
2018-08-20T16:11:52.588Z,68.50
2018-08-20T16:14:20.803Z,68.90
2018-08-20T16:16:49.112Z,68.00
2018-08-20T16:19:17.420Z,67.50
2018-08-20T16:21:45.717Z,68.30
2018-08-20T16:24:13.916Z,67.50
2018-08-20T16:26:42.430Z,67.50
2018-08-20T16:29:10.679Z,67.60
2018-08-20T16:31:38.929Z,68.30
2018-08-20T16:34:07.155Z,68.30
2018-08-20T16:36:35.484Z,68.20
2018-08-20T16:39:05.171Z,67.60
2018-08-20T16:41:33.416Z,68.30
2018-08-20T16:44:01.775Z,68.30
2018-08-20T16:46:29.950Z,68.90
2018-08-20T16:48:58.238Z,68.00
2018-08-20T16:51:26.465Z,68.30
2018-08-20T16:53:54.719Z,68.20
2018-08-20T16:56:22.979Z,67.90
2018-08-20T16:58:51.228Z,68.10
2018-08-20T17:01:19.817Z,68.50
2018-08-20T17:03:48.071Z,67.60
2018-08-20T17:06:16.307Z,67.60
2018-08-20T17:08:45.057Z,67.80
2018-08-20T17:11:14.045Z,68.60
2018-08-20T17:13:42.419Z,67.50
2018-08-20T17:16:13.584Z,67.50
2018-08-20T17:18:41.964Z,67.10
2018-08-20T17:21:10.287Z,67.10
2018-08-20T17:23:38.508Z,67.40
2018-08-20T17:26:07.374Z,67.30
2018-08-20T17:28:35.654Z,67.40
2018-08-20T17:31:07.643Z,67.50
2018-08-20T17:33:36.356Z,67.70
2018-08-20T17:36:07.370Z,69.00
2018-08-20T17:38:35.586Z,68.40
2018-08-20T17:41:03.803Z,68.20
2018-08-20T17:43:32.088Z,68.40
2018-08-20T17:46:00.288Z,68.30
2018-08-20T17:48:31.523Z,68.70
2018-08-20T17:51:00.015Z,68.60
2018-08-20T17:53:39.736Z,68.90
2018-08-20T17:56:08.028Z,69.10
2018-08-20T17:58:36.280Z,68.90
2018-08-20T18:01:04.810Z,69.30
2018-08-20T18:03:33.583Z,69.40
2018-08-20T18:06:03.900Z,69.60
2018-08-20T18:08:33.044Z,69.80
2018-08-20T18:11:01.654Z,69.80
2018-08-20T18:13:49.671Z,69.90
2018-08-20T18:16:19.255Z,70.00
2018-08-20T18:18:48.735Z,70.30
2018-08-20T18:21:17.092Z,70.30
2018-08-20T18:23:45.283Z,70.50
2018-08-20T18:26:13.501Z,71.30
2018-08-20T18:28:47.109Z,71.40
2018-08-20T18:31:17.592Z,71.50
2018-08-20T18:33:45.844Z,71.30
2018-08-20T18:36:14.916Z,71.70
2018-08-20T18:38:53.274Z,71.80
2018-08-20T18:41:25.768Z,72.20
2018-08-20T18:43:53.970Z,72.30
2018-08-20T18:46:22.148Z,72.20
2018-08-20T18:48:50.336Z,72.50
2018-08-20T18:51:18.833Z,72.50
2018-08-20T18:53:47.045Z,72.90
2018-08-20T18:56:17.108Z,73.10
2018-08-20T18:58:45.524Z,73.60
2018-08-20T19:01:13.814Z,73.30
2018-08-20T19:03:48.358Z,73.70
2018-08-20T19:06:17.200Z,73.80
2018-08-20T19:08:45.453Z,73.80
2018-08-20T19:11:14.027Z,74.20
2018-08-20T19:13:43.001Z,74.70
2018-08-20T19:16:35.983Z,74.50
2018-08-20T19:19:04.858Z,74.30
2018-08-20T19:21:37.584Z,74.30
2018-08-20T19:24:06.732Z,74.70
2018-08-20T19:26:34.944Z,75.10
2018-08-20T19:29:18.178Z,75.10
2018-08-20T19:31:46.376Z,75.40
2018-08-20T19:34:14.668Z,75.50
2018-08-20T19:36:42.878Z,75.90
2018-08-20T19:39:11.081Z,76.40
2018-08-20T19:41:39.283Z,76.30
2018-08-20T19:44:08.419Z,76.60
2018-08-20T19:46:37.483Z,76.90
2018-08-20T19:49:14.088Z,77.10
2018-08-20T19:51:43.396Z,77.60
2018-08-20T19:54:13.780Z,78.60
2018-08-20T19:56:42.029Z,78.00
2018-08-20T19:59:10.752Z,78.20
2018-08-20T20:01:39.071Z,78.30
2018-08-20T20:04:07.982Z,78.00
2018-08-20T20:06:36.227Z,78.00
2018-08-20T20:09:07.691Z,77.80
2018-08-20T20:11:41.148Z,77.90
2018-08-20T20:14:09.395Z,78.20
2018-08-20T20:16:43.040Z,78.30
2018-08-20T20:19:11.713Z,78.50
2018-08-20T20:21:39.986Z,78.70
2018-08-20T20:24:08.899Z,78.80
2018-08-20T20:26:37.127Z,79.00
2018-08-20T20:29:06.740Z,78.80
2018-08-20T20:31:34.934Z,79.30
2018-08-20T20:34:03.190Z,79.30
2018-08-20T20:36:32.303Z,79.20
2018-08-20T20:39:00.816Z,79.20
2018-08-20T20:41:29.098Z,79.20
2018-08-20T20:43:57.323Z,79.60
2018-08-20T20:46:25.518Z,79.50
2018-08-20T20:48:54.020Z,80.40
2018-08-20T20:51:22.260Z,81.10
2018-08-20T20:53:50.487Z,80.70
2018-08-20T20:56:18.768Z,81.50
2018-08-20T20:58:46.992Z,82.20
2018-08-20T21:01:15.386Z,82.30
2018-08-20T21:03:43.533Z,82.00
2018-08-20T21:06:11.775Z,82.40
2018-08-20T21:08:44.210Z,82.50
2018-08-20T21:11:13.619Z,82.90
2018-08-20T21:13:42.377Z,83.20
2018-08-20T21:16:11.819Z,83.60
2018-08-20T21:18:48.323Z,83.90
2018-08-20T21:21:17.827Z,84.00
2018-08-20T21:23:46.069Z,84.40
2018-08-20T21:26:14.355Z,84.70
2018-08-20T21:28:46.747Z,84.30
2018-08-20T21:31:16.095Z,84.80
2018-08-20T21:33:44.919Z,84.80
2018-08-20T21:36:13.697Z,85.90
2018-08-20T21:38:42.187Z,86.90
2018-08-20T21:41:10.397Z,86.50
2018-08-20T21:43:45.440Z,87.10
2018-08-20T21:46:13.815Z,87.70
2018-08-20T21:48:42.460Z,88.10
2018-08-20T21:51:14.029Z,88.50
2018-08-20T21:53:42.232Z,89.10
2018-08-20T21:56:11.487Z,89.40
2018-08-20T21:58:41.791Z,89.90
2018-08-20T22:01:11.562Z,90.20
2018-08-20T22:03:40.332Z,90.40
2018-08-20T22:06:08.959Z,90.60
2018-08-20T22:08:37.291Z,90.70
2018-08-20T22:11:05.598Z,91.00
2018-08-20T22:13:33.911Z,91.10
2018-08-20T22:16:19.104Z,91.20
2018-08-20T22:18:51.759Z,91.40
2018-08-20T22:21:19.985Z,91.60
2018-08-20T22:23:48.235Z,91.90
2018-08-20T22:26:17.963Z,91.90
2018-08-20T22:28:48.696Z,92.10
2018-08-20T22:31:17.060Z,92.30
2018-08-20T22:33:54.872Z,92.30
2018-08-20T22:36:23.228Z,92.50
2018-08-20T22:38:52.756Z,92.50
2018-08-20T22:41:22.047Z,92.80
2018-08-20T22:43:50.670Z,92.50
2018-08-20T22:46:19.726Z,92.90
2018-08-20T22:48:50.261Z,92.90
2018-08-20T22:51:19.055Z,93.20
2018-08-20T22:53:51.525Z,93.30
2018-08-20T22:56:35.476Z,93.30
2018-08-20T22:59:05.291Z,93.40
2018-08-20T23:01:33.479Z,93.50
2018-08-20T23:04:01.697Z,93.70
2018-08-20T23:06:30.155Z,93.70
2018-08-20T23:08:58.397Z,94.00
2018-08-20T23:11:39.270Z,93.90
2018-08-20T23:14:09.089Z,94.00
2018-08-20T23:16:37.769Z,94.10
2018-08-20T23:19:06.035Z,94.40
2018-08-20T23:21:38.521Z,94.20
2018-08-20T23:24:07.096Z,94.30
2018-08-20T23:26:35.333Z,94.30
2018-08-20T23:29:04.525Z,94.20
2018-08-20T23:31:32.731Z,94.40
2018-08-20T23:34:01.008Z,94.40
2018-08-20T23:36:29.384Z,94.40
2018-08-20T23:38:57.624Z,94.50
2018-08-20T23:41:25.836Z,94.60
2018-08-20T23:43:58.969Z,94.70
2018-08-20T23:46:36.240Z,94.80
2018-08-20T23:49:05.714Z,94.80
2018-08-20T23:51:34.013Z,95.20
2018-08-20T23:54:02.359Z,95.00
2018-08-20T23:56:30.617Z,95.00
2018-08-20T23:58:59.329Z,95.20
